Terminal Aerodrome Forecast
Issued by NWS

Home | Current Version | Previous Version | Text Only | Print | Product List | Glossary Off
Versions: 1 2 3 4 5 6 7 8 9 10 11 12 13 14 15 16 17 18 19 20 21 22 23 24

653
FTUS43 KLOT 101847 AAA
TAFDPA
TAF AMD
KDPA 101847Z 1019/1118 25012G20KT P6SM SCT030 BKN250
     FM102000 30010KT P6SM BKN025
     FM110700 24005KT P6SM BKN050
     FM111300 21007KT P6SM -SHSN SCT025 OVC040
      TEMPO 1116/1118 2SM -SHSN SCT020 BKN025=

USA.gov is the U.S. government's official web portal to all federal, state and local government web resources and services.